Time,TemperatureF,DewpointF,PressureIn,WindDirection,WindDirectionDegrees,WindSpeedMPH,WindSpeedGustMPH,Humidity,HourlyPrecipIn,Conditions,Clouds,dailyrainin,SoftwareType,DateUTC
2013-03-06 00:02:00,27.0,-99.9,-100.00,North,-999,-999.0,-999.0,-999,0.00,,,-99.99,,2013-03-06 06:02:00,
2013-03-06 00:12:00,27.0,-99.9,-100.00,North,-999,-999.0,-999.0,-999,0.00,,,-99.99,,2013-03-06 06:12:00,
2013-03-06 00:22:00,27.0,-99.9,-100.00,North,-999,-999.0,-999.0,-999,0.00,,,-99.99,,2013-03-06 06:22:00,
2013-03-06 00:32:00,27.0,27.0,-100.00,North,-999,-999.0,-999.0,99,0.00,,,-99.99,,2013-03-06 06:32:00,
2013-03-06 00:42:00,27.0,27.0,-100.00,North,-999,-999.0,-999.0,99,0.00,,,-99.99,,2013-03-06 06:42:00,
2013-03-06 00:52:00,27.0,26.0,-100.00,North,-999,-999.0,-999.0,96,0.00,,,-99.99,,2013-03-06 06:52:00,
2013-03-06 01:01:00,27.0,26.0,-100.00,North,-999,-999.0,-999.0,96,0.00,,,-99.99,,2013-03-06 07:01:00,
2013-03-06 01:11:00,27.0,25.0,-100.00,North,-999,-999.0,-999.0,93,0.00,,,-99.99,,2013-03-06 07:11:00,
2013-03-06 01:22:00,27.0,26.0,-100.00,North,-999,-999.0,-999.0,94,0.00,,,-99.99,,2013-03-06 07:22:00,
2013-03-06 01:32:00,26.0,26.0,-100.00,North,-999,-999.0,-999.0,97,0.00,,,-99.99,,2013-03-06 07:32:00,
2013-03-06 01:42:00,26.0,26.0,-100.00,North,-999,-999.0,-999.0,97,0.00,,,-99.99,,2013-03-06 07:42:00,
2013-03-06 01:52:00,26.0,-99.9,-100.00,North,-999,-999.0,-999.0,-999,0.00,,,-99.99,,2013-03-06 07:52:00,
2013-03-06 02:02:00,26.0,-99.9,-100.00,North,-999,-999.0,-999.0,-999,0.00,,,-99.99,,2013-03-06 08:02:00,
2013-03-06 02:11:00,26.0,-99.9,-100.00,North,-999,-999.0,-999.0,-999,0.00,,,-99.99,,2013-03-06 08:11:00,
2013-03-06 02:22:00,26.0,-99.9,-100.00,North,-999,-999.0,-999.0,-999,0.00,,,-99.99,,2013-03-06 08:22:00,
2013-03-06 02:32:00,26.0,-99.9,-100.00,North,-999,-999.0,-999.0,-999,0.00,,,-99.99,,2013-03-06 08:32:00,
2013-03-06 02:42:00,26.0,-99.9,-100.00,North,-999,-999.0,-999.0,-999,0.00,,,-99.99,,2013-03-06 08:42:00,
2013-03-06 02:52:00,26.0,-99.9,-100.00,North,-999,-999.0,-999.0,-999,0.00,,,-99.99,,2013-03-06 08:52:00,
2013-03-06 03:02:00,26.0,-99.9,-100.00,North,-999,-999.0,-999.0,-999,0.00,,,-99.99,,2013-03-06 09:02:00,
2013-03-06 03:12:00,26.0,-99.9,-100.00,North,-999,-999.0,-999.0,-999,0.00,,,-99.99,,2013-03-06 09:12:00,
2013-03-06 03:22:00,26.0,-99.9,-100.00,North,-999,-999.0,-999.0,-999,0.00,,,-99.99,,2013-03-06 09:22:00,
2013-03-06 03:32:00,26.0,-99.9,-100.00,North,-999,-999.0,-999.0,-999,0.00,,,-99.99,,2013-03-06 09:32:00,
2013-03-06 03:42:00,26.0,-99.9,-100.00,North,-999,-999.0,-999.0,-999,0.00,,,-99.99,,2013-03-06 09:42:00,
2013-03-06 03:52:00,26.0,-99.9,-100.00,North,-999,-999.0,-999.0,-999,0.00,,,-99.99,,2013-03-06 09:52:00,
2013-03-06 04:02:00,26.0,-99.9,-100.00,North,-999,-999.0,-999.0,-999,0.00,,,-99.99,,2013-03-06 10:02:00,
2013-03-06 04:12:00,26.0,-99.9,-100.00,North,-999,-999.0,-999.0,-999,0.00,,,-99.99,,2013-03-06 10:12:00,
2013-03-06 04:22:00,26.0,-99.9,-100.00,North,-999,-999.0,-999.0,-999,0.00,,,-99.99,,2013-03-06 10:22:00,
2013-03-06 04:32:00,26.0,-99.9,-100.00,North,-999,-999.0,-999.0,-999,0.00,,,-99.99,,2013-03-06 10:32:00,
2013-03-06 04:42:00,26.0,-99.9,-100.00,North,-999,-999.0,-999.0,-999,0.00,,,-99.99,,2013-03-06 10:42:00,
2013-03-06 04:52:00,26.0,-99.9,-100.00,North,-999,-999.0,-999.0,-999,0.00,,,-99.99,,2013-03-06 10:52:00,
2013-03-06 05:02:00,26.0,-99.9,-100.00,North,-999,-999.0,-999.0,-999,0.00,,,-99.99,,2013-03-06 11:02:00,
2013-03-06 05:12:00,25.0,-99.9,-100.00,North,-999,-999.0,-999.0,-999,0.00,,,-99.99,,2013-03-06 11:12:00,
2013-03-06 05:23:00,25.0,-99.9,-100.00,North,-999,-999.0,-999.0,-999,0.00,,,-99.99,,2013-03-06 11:23:00,
2013-03-06 05:32:00,25.0,-99.9,-100.00,North,-999,-999.0,-999.0,-999,0.00,,,-99.99,,2013-03-06 11:32:00,
2013-03-06 05:43:00,25.0,-99.9,-100.00,North,-999,-999.0,-999.0,-999,0.00,,,-99.99,,2013-03-06 11:43:00,
2013-03-06 05:52:00,25.0,24.0,-100.00,North,-999,-999.0,-999.0,98,0.00,,,-99.99,,2013-03-06 11:52:00,
2013-03-06 06:02:00,25.0,24.0,-100.00,North,-999,-999.0,-999.0,98,0.00,,,-99.99,,2013-03-06 12:02:00,
2013-03-06 06:11:00,24.0,23.0,-100.00,North,-999,-999.0,-999.0,97,0.00,,,-99.99,,2013-03-06 12:11:00,
2013-03-06 06:21:00,23.0,23.0,-100.00,North,-999,-999.0,-999.0,98,0.00,,,-99.99,,2013-03-06 12:21:00,
2013-03-06 06:33:00,22.0,-99.9,-100.00,North,-999,-999.0,-999.0,-999,0.00,,,-99.99,,2013-03-06 12:33:00,
2013-03-06 06:43:00,22.0,-99.9,-100.00,North,-999,-999.0,-999.0,-999,0.00,,,-99.99,,2013-03-06 12:43:00,
2013-03-06 06:53:00,22.0,-99.9,-100.00,North,-999,-999.0,-999.0,-999,0.00,,,-99.99,,2013-03-06 12:53:00,
2013-03-06 07:02:00,22.0,-99.9,-100.00,North,-999,-999.0,-999.0,-999,0.00,,,-99.99,,2013-03-06 13:02:00,
2013-03-06 07:12:00,21.0,-99.9,-100.00,North,-999,-999.0,-999.0,-999,0.00,,,-99.99,,2013-03-06 13:12:00,
2013-03-06 07:22:00,21.0,-99.9,-100.00,North,-999,-999.0,-999.0,-999,0.00,,,-99.99,,2013-03-06 13:22:00,
2013-03-06 07:32:00,22.0,-99.9,-100.00,North,-999,-999.0,-999.0,-999,0.00,,,-99.99,,2013-03-06 13:32:00,
2013-03-06 07:43:00,22.0,-99.9,-100.00,North,-999,-999.0,-999.0,-999,0.00,,,-99.99,,2013-03-06 13:43:00,
2013-03-06 07:52:00,23.0,-99.9,-100.00,North,-999,-999.0,-999.0,-999,0.00,,,-99.99,,2013-03-06 13:52:00,
2013-03-06 08:02:00,23.0,-99.9,-100.00,North,-999,-999.0,-999.0,-999,0.00,,,-99.99,,2013-03-06 14:02:00,
2013-03-06 08:12:00,23.0,-99.9,-100.00,North,-999,-999.0,-999.0,-999,0.00,,,-99.99,,2013-03-06 14:12:00,
2013-03-06 08:22:00,24.0,-99.9,-100.00,North,-999,-999.0,-999.0,-999,0.00,,,-99.99,,2013-03-06 14:22:00,
2013-03-06 08:32:00,24.0,-99.9,-100.00,North,-999,-999.0,-999.0,-999,0.00,,,-99.99,,2013-03-06 14:32:00,
2013-03-06 08:42:00,24.0,-99.9,-100.00,North,-999,-999.0,-999.0,-999,0.00,,,-99.99,,2013-03-06 14:42:00,
2013-03-06 08:53:00,25.0,-99.9,-100.00,North,-999,-999.0,-999.0,-999,0.00,,,-99.99,,2013-03-06 14:53:00,
2013-03-06 09:02:00,25.0,-99.9,-100.00,North,-999,-999.0,-999.0,-999,0.00,,,-99.99,,2013-03-06 15:02:00,
2013-03-06 09:11:00,26.0,25.0,-100.00,North,-999,-999.0,-999.0,97,0.00,,,-99.99,,2013-03-06 15:11:00,
2013-03-06 09:21:00,26.0,25.0,-100.00,North,-999,-999.0,-999.0,95,0.00,,,-99.99,,2013-03-06 15:21:00,
2013-03-06 09:32:00,26.0,24.0,-100.00,North,-999,-999.0,-999.0,94,0.00,,,-99.99,,2013-03-06 15:32:00,
2013-03-06 09:42:00,26.0,24.0,-100.00,North,-999,-999.0,-999.0,92,0.00,,,-99.99,,2013-03-06 15:42:00,
2013-03-06 09:52:00,27.0,24.0,-100.00,North,-999,-999.0,-999.0,88,0.00,,,-99.99,,2013-03-06 15:52:00,
2013-03-06 10:01:00,27.0,24.0,-100.00,North,-999,-999.0,-999.0,88,0.00,,,-99.99,,2013-03-06 16:01:00,
2013-03-06 10:11:00,27.0,23.0,-100.00,North,-999,-999.0,-999.0,83,0.00,,,-99.99,,2013-03-06 16:11:00,
2013-03-06 10:21:00,27.0,23.0,-100.00,North,-999,-999.0,-999.0,83,0.00,,,-99.99,,2013-03-06 16:21:00,
2013-03-06 10:32:00,27.0,23.0,-100.00,North,-999,-999.0,-999.0,82,0.00,,,-99.99,,2013-03-06 16:32:00,
2013-03-06 10:42:00,27.0,23.0,-100.00,North,-999,-999.0,-999.0,81,0.00,,,-99.99,,2013-03-06 16:42:00,
2013-03-06 10:52:00,27.0,22.0,-100.00,North,-999,-999.0,-999.0,78,0.00,,,-99.99,,2013-03-06 16:52:00,
2013-03-06 11:01:00,27.0,22.0,-100.00,North,-999,-999.0,-999.0,78,0.00,,,-99.99,,2013-03-06 17:01:00,
2013-03-06 11:11:00,27.0,22.0,-100.00,North,-999,-999.0,-999.0,78,0.00,,,-99.99,,2013-03-06 17:11:00,
2013-03-06 11:21:00,27.0,22.0,-100.00,North,-999,-999.0,-999.0,79,0.00,,,-99.99,,2013-03-06 17:21:00,
2013-03-06 11:32:00,27.0,22.0,-100.00,North,-999,-999.0,-999.0,78,0.00,,,-99.99,,2013-03-06 17:32:00,
2013-03-06 11:41:00,28.0,22.0,-100.00,North,-999,-999.0,-999.0,77,0.00,,,-99.99,,2013-03-06 17:41:00,
2013-03-06 11:52:00,28.0,21.0,-100.00,North,-999,-999.0,-999.0,76,0.00,,,-99.99,,2013-03-06 17:52:00,
2013-03-06 12:02:00,28.0,21.0,-100.00,North,-999,-999.0,-999.0,76,0.00,,,-99.99,,2013-03-06 18:02:00,
2013-03-06 12:28:00,28.0,21.0,-100.00,North,-999,-999.0,-999.0,74,0.00,,,-99.99,,2013-03-06 18:28:00,
2013-03-06 12:42:00,29.0,22.0,-100.00,North,-999,-999.0,-999.0,72,0.00,,,-99.99,,2013-03-06 18:42:00,
2013-03-06 12:52:00,29.0,20.0,-100.00,North,-999,-999.0,-999.0,70,0.00,,,-99.99,,2013-03-06 18:52:00,
2013-03-06 13:02:00,29.0,20.0,-100.00,North,-999,-999.0,-999.0,70,0.00,,,-99.99,,2013-03-06 19:02:00,
2013-03-06 13:11:00,29.0,20.0,-100.00,North,-999,-999.0,-999.0,69,0.00,,,-99.99,,2013-03-06 19:11:00,
2013-03-06 13:21:00,30.0,22.0,-100.00,North,-999,-999.0,-999.0,70,0.00,,,-99.99,,2013-03-06 19:21:00,
2013-03-06 13:32:00,32.0,22.0,-100.00,North,-999,-999.0,-999.0,66,0.00,,,-99.99,,2013-03-06 19:32:00,
2013-03-06 13:43:00,32.0,22.0,-100.00,North,-999,-999.0,-999.0,66,0.00,,,-99.99,,2013-03-06 19:43:00,
2013-03-06 13:52:00,31.0,22.0,-100.00,North,-999,-999.0,-999.0,69,0.00,,,-99.99,,2013-03-06 19:52:00,
2013-03-06 14:01:00,31.0,22.0,-100.00,North,-999,-999.0,-999.0,69,0.00,,,-99.99,,2013-03-06 20:01:00,
2013-03-06 14:11:00,31.0,21.0,-100.00,North,-999,-999.0,-999.0,64,0.00,,,-99.99,,2013-03-06 20:11:00,
2013-03-06 14:22:00,31.0,21.0,-100.00,North,-999,-999.0,-999.0,64,0.00,,,-99.99,,2013-03-06 20:22:00,
2013-03-06 14:32:00,31.0,21.0,-100.00,North,-999,-999.0,-999.0,66,0.00,,,-99.99,,2013-03-06 20:32:00,
2013-03-06 14:42:00,31.0,21.0,-100.00,North,-999,-999.0,-999.0,66,0.00,,,-99.99,,2013-03-06 20:42:00,
2013-03-06 14:52:00,31.0,21.0,-100.00,North,-999,-999.0,-999.0,67,0.00,,,-99.99,,2013-03-06 20:52:00,
2013-03-06 15:02:00,31.0,21.0,-100.00,North,-999,-999.0,-999.0,67,0.00,,,-99.99,,2013-03-06 21:02:00,
2013-03-06 15:11:00,32.0,22.0,-100.00,North,-999,-999.0,-999.0,65,0.00,,,-99.99,,2013-03-06 21:11:00,
2013-03-06 15:22:00,32.0,22.0,-100.00,North,-999,-999.0,-999.0,66,0.00,,,-99.99,,2013-03-06 21:22:00,
2013-03-06 15:32:00,31.0,21.0,-100.00,North,-999,-999.0,-999.0,65,0.00,,,-99.99,,2013-03-06 21:32:00,
2013-03-06 15:42:00,32.0,21.0,-100.00,North,-999,-999.0,-999.0,64,0.00,,,-99.99,,2013-03-06 21:42:00,
2013-03-06 15:51:00,32.0,22.0,-100.00,North,-999,-999.0,-999.0,66,0.00,,,-99.99,,2013-03-06 21:51:00,
2013-03-06 16:01:00,32.0,22.0,-100.00,North,-999,-999.0,-999.0,66,0.00,,,-99.99,,2013-03-06 22:01:00,
2013-03-06 16:11:00,31.0,21.0,-100.00,North,-999,-999.0,-999.0,67,0.00,,,-99.99,,2013-03-06 22:11:00,
2013-03-06 16:21:00,30.0,22.0,-100.00,North,-999,-999.0,-999.0,69,0.00,,,-99.99,,2013-03-06 22:21:00,
2013-03-06 16:32:00,31.0,22.0,-100.00,North,-999,-999.0,-999.0,68,0.00,,,-99.99,,2013-03-06 22:32:00,
2013-03-06 16:41:00,31.0,21.0,-100.00,North,-999,-999.0,-999.0,66,0.00,,,-99.99,,2013-03-06 22:41:00,
2013-03-06 16:51:00,31.0,21.0,-100.00,North,-999,-999.0,-999.0,67,0.00,,,-99.99,,2013-03-06 22:51:00,
2013-03-06 17:01:00,31.0,21.0,-100.00,North,-999,-999.0,-999.0,67,0.00,,,-99.99,,2013-03-06 23:01:00,
2013-03-06 17:11:00,30.0,22.0,-100.00,North,-999,-999.0,-999.0,70,0.00,,,-99.99,,2013-03-06 23:11:00,
2013-03-06 17:21:00,29.0,21.0,-100.00,North,-999,-999.0,-999.0,72,0.00,,,-99.99,,2013-03-06 23:21:00,
2013-03-06 17:32:00,30.0,22.0,-100.00,North,-999,-999.0,-999.0,72,0.00,,,-99.99,,2013-03-06 23:32:00,
2013-03-06 17:42:00,29.0,22.0,-100.00,North,-999,-999.0,-999.0,74,0.00,,,-99.99,,2013-03-06 23:42:00,
2013-03-06 17:52:00,28.0,21.0,-100.00,North,-999,-999.0,-999.0,76,0.00,,,-99.99,,2013-03-06 23:52:00,
2013-03-06 18:01:00,28.0,21.0,-100.00,North,-999,-999.0,-999.0,76,0.00,,,-99.99,,2013-03-07 00:01:00,
2013-03-06 18:11:00,27.0,22.0,-100.00,North,-999,-999.0,-999.0,78,0.00,,,-99.99,,2013-03-07 00:11:00,
2013-03-06 18:21:00,27.0,22.0,-100.00,North,-999,-999.0,-999.0,78,0.00,,,-99.99,,2013-03-07 00:21:00,
2013-03-06 18:32:00,26.0,21.0,-100.00,North,-999,-999.0,-999.0,80,0.00,,,-99.99,,2013-03-07 00:32:00,
2013-03-06 18:41:00,26.0,21.0,-100.00,North,-999,-999.0,-999.0,80,0.00,,,-99.99,,2013-03-07 00:41:00,
2013-03-06 18:51:00,26.0,21.0,-100.00,North,-999,-999.0,-999.0,81,0.00,,,-99.99,,2013-03-07 00:51:00,
2013-03-06 19:01:00,26.0,21.0,-100.00,North,-999,-999.0,-999.0,81,0.00,,,-99.99,,2013-03-07 01:01:00,
2013-03-06 19:11:00,26.0,21.0,-100.00,North,-999,-999.0,-999.0,82,0.00,,,-99.99,,2013-03-07 01:11:00,
2013-03-06 19:21:00,25.0,21.0,-100.00,North,-999,-999.0,-999.0,83,0.00,,,-99.99,,2013-03-07 01:21:00,
2013-03-06 19:31:00,25.0,21.0,-100.00,North,-999,-999.0,-999.0,83,0.00,,,-99.99,,2013-03-07 01:31:00,
2013-03-06 19:41:00,25.0,21.0,-100.00,North,-999,-999.0,-999.0,84,0.00,,,-99.99,,2013-03-07 01:41:00,
2013-03-06 19:51:00,25.0,21.0,-100.00,North,-999,-999.0,-999.0,84,0.00,,,-99.99,,2013-03-07 01:51:00,
2013-03-06 20:01:00,25.0,21.0,-100.00,North,-999,-999.0,-999.0,84,0.00,,,-99.99,,2013-03-07 02:01:00,
2013-03-06 20:11:00,24.0,20.0,-100.00,North,-999,-999.0,-999.0,85,0.00,,,-99.99,,2013-03-07 02:11:00,
2013-03-06 20:21:00,24.0,20.0,-100.00,North,-999,-999.0,-999.0,86,0.00,,,-99.99,,2013-03-07 02:21:00,
2013-03-06 20:32:00,24.0,20.0,-100.00,North,-999,-999.0,-999.0,87,0.00,,,-99.99,,2013-03-07 02:32:00,
2013-03-06 20:41:00,24.0,20.0,-100.00,North,-999,-999.0,-999.0,87,0.00,,,-99.99,,2013-03-07 02:41:00,
2013-03-06 20:51:00,24.0,20.0,-100.00,North,-999,-999.0,-999.0,87,0.00,,,-99.99,,2013-03-07 02:51:00,
2013-03-06 21:02:00,23.0,21.0,-100.00,North,-999,-999.0,-999.0,89,0.00,,,-99.99,,2013-03-07 03:02:00,
2013-03-06 21:11:00,23.0,21.0,-100.00,North,-999,-999.0,-999.0,91,0.00,,,-99.99,,2013-03-07 03:11:00,
2013-03-06 21:21:00,23.0,21.0,-100.00,North,-999,-999.0,-999.0,92,0.00,,,-99.99,,2013-03-07 03:21:00,
2013-03-06 21:32:00,23.0,21.0,-100.00,North,-999,-999.0,-999.0,93,0.00,,,-99.99,,2013-03-07 03:32:00,
2013-03-06 21:42:00,22.0,22.0,-100.00,North,-999,-999.0,-999.0,96,0.00,,,-99.99,,2013-03-07 03:42:00,
2013-03-06 21:52:00,22.0,22.0,-100.00,North,-999,-999.0,-999.0,99,0.00,,,-99.99,,2013-03-07 03:52:00,
2013-03-06 22:01:00,22.0,22.0,-100.00,North,-999,-999.0,-999.0,99,0.00,,,-99.99,,2013-03-07 04:01:00,
2013-03-06 22:12:00,22.0,-99.9,-100.00,North,-999,-999.0,-999.0,-999,0.00,,,-99.99,,2013-03-07 04:12:00,
2013-03-06 22:32:00,22.0,-99.9,-100.00,North,-999,-999.0,-999.0,-999,0.00,,,-99.99,,2013-03-07 04:32:00,
2013-03-06 22:42:00,22.0,-99.9,-100.00,North,-999,-999.0,-999.0,-999,0.00,,,-99.99,,2013-03-07 04:42:00,
2013-03-06 22:52:00,21.0,-99.9,-100.00,North,-999,-999.0,-999.0,-999,0.00,,,-99.99,,2013-03-07 04:52:00,
2013-03-06 23:03:00,21.0,-99.9,-100.00,North,-999,-999.0,-999.0,-999,0.00,,,-99.99,,2013-03-07 05:03:00,
2013-03-06 23:12:00,21.0,-99.9,-100.00,North,-999,-999.0,-999.0,-999,0.00,,,-99.99,,2013-03-07 05:12:00,
2013-03-06 23:23:00,21.0,-99.9,-100.00,North,-999,-999.0,-999.0,-999,0.00,,,-99.99,,2013-03-07 05:23:00,
2013-03-06 23:32:00,21.0,-99.9,-100.00,North,-999,-999.0,-999.0,-999,0.00,,,-99.99,,2013-03-07 05:32:00,
2013-03-06 23:42:00,21.0,-99.9,-100.00,North,-999,-999.0,-999.0,-999,0.00,,,-99.99,,2013-03-07 05:42:00,
2013-03-06 23:53:00,21.0,-99.9,-100.00,North,-999,-999.0,-999.0,-999,0.00,,,-99.99,,2013-03-07 05:53:00,